Time;durP1;ratioP1;P1;durP2;ratioP2;P2;SDS_P1;SDS_P2;PMS_P1;PMS_P2;Temp;Humidity;BMP_temperature;BMP_pressure;BME280_temperature;BME280_humidity;BME280_pressure;Samples;Min_cycle;Max_cycle;Signal;HPM_P1;HPM_P2
2021/10/01 00:01:43;;;;;;;4.80;1.53;;;;;;;;;;5067569;28;20282;-71
2021/10/01 00:04:11;;;;;;;5.97;1.90;;;;;;;;;;5067531;28;20220;-70
2021/10/01 00:06:38;;;;;;;4.93;1.70;;;;;;;;;;5067771;28;20250;-71
2021/10/01 00:09:06;;;;;;;4.20;1.73;;;;;;;;;;5067632;28;20214;-70
2021/10/01 00:11:33;;;;;;;4.43;1.60;;;;;;;;;;5067406;28;20539;-71
2021/10/01 00:13:59;;;;;;;4.80;1.83;;;;;;;;;;5067902;28;20213;-71
2021/10/01 00:16:26;;;;;;;6.80;1.73;;;;;;;;;;5066821;28;20232;-70
2021/10/01 00:18:52;;;;;;;4.70;1.70;;;;;;;;;;5067427;28;20626;-70
2021/10/01 00:21:19;;;;;;;3.93;1.43;;;;;;;;;;5067372;28;20231;-70
2021/10/01 00:23:45;;;;;;;3.53;1.30;;;;;;;;;;5067374;28;20732;-70
2021/10/01 00:26:13;;;;;;;5.10;1.80;;;;;;;;;;5066957;28;20230;-70
2021/10/01 00:28:39;;;;;;;6.57;1.93;;;;;;;;;;5066919;28;20660;-70
2021/10/01 00:31:05;;;;;;;4.33;1.80;;;;;;;;;;5067154;28;20637;-71
2021/10/01 00:33:32;;;;;;;3.77;1.50;;;;;;;;;;5067359;28;20335;-72
2021/10/01 00:36:00;;;;;;;3.37;1.40;;;;;;;;;;5067333;28;20294;-73
2021/10/01 00:38:27;;;;;;;7.50;2.07;;;;;;;;;;5066899;28;20769;-72
2021/10/01 00:40:53;;;;;;;4.07;1.73;;;;;;;;;;5066922;28;20552;-73
2021/10/01 00:43:21;;;;;;;5.30;2.00;;;;;;;;;;5066693;28;20314;-73
2021/10/01 00:45:48;;;;;;;4.97;1.40;;;;;;;;;;5067286;28;20300;-72
2021/10/01 00:48:14;;;;;;;5.33;1.60;;;;;;;;;;5066767;28;20221;-73
2021/10/01 00:50:41;;;;;;;5.93;1.60;;;;;;;;;;5067277;28;20217;-73
2021/10/01 00:53:08;;;;;;;7.37;2.23;;;;;;;;;;5066114;28;20283;-72
2021/10/01 00:55:34;;;;;;;3.27;1.43;;;;;;;;;;5066392;28;20277;-73
2021/10/01 00:58:01;;;;;;;4.80;1.63;;;;;;;;;;5066867;28;20268;-73
2021/10/01 01:00:29;;;;;;;5.67;2.03;;;;;;;;;;5066877;28;20225;-73
2021/10/01 01:02:58;;;;;;;4.23;1.33;;;;;;;;;;5066684;28;20768;-73
2021/10/01 01:05:31;;;;;;;3.80;1.67;;;;;;;;;;5066616;28;20217;-73
2021/10/01 01:08:02;;;;;;;3.80;1.80;;;;;;;;;;5066778;28;20217;-72
2021/10/01 01:10:36;;;;;;;5.47;1.70;;;;;;;;;;5066612;28;20236;-73
2021/10/01 01:13:10;;;;;;;5.63;1.97;;;;;;;;;;5066691;28;20234;-73
2021/10/01 01:15:42;;;;;;;6.10;1.80;;;;;;;;;;5066972;28;20667;-73
2021/10/01 01:18:11;;;;;;;4.20;1.97;;;;;;;;;;5066683;28;20279;-73
2021/10/01 01:20:40;;;;;;;5.57;1.70;;;;;;;;;;5066621;28;20283;-73
2021/10/01 01:23:20;;;;;;;8.27;1.80;;;;;;;;;;5066315;28;20259;-73
2021/10/01 01:25:56;;;;;;;3.37;1.77;;;;;;;;;;5066889;28;20304;-73
2021/10/01 01:28:37;;;;;;;4.77;1.70;;;;;;;;;;5066428;28;20224;-73
2021/10/01 01:31:11;;;;;;;4.67;2.00;;;;;;;;;;5066165;28;20209;-73
2021/10/01 01:33:40;;;;;;;2.80;1.53;;;;;;;;;;5066488;28;20208;-71
2021/10/01 01:36:10;;;;;;;5.47;2.03;;;;;;;;;;5066906;28;20221;-71
2021/10/01 01:38:40;;;;;;;4.50;1.60;;;;;;;;;;5066503;28;20691;-71
2021/10/01 01:41:07;;;;;;;4.60;1.57;;;;;;;;;;5066427;28;20287;-71
2021/10/01 01:43:35;;;;;;;8.27;1.80;;;;;;;;;;5066252;28;20291;-71
2021/10/01 01:46:02;;;;;;;4.63;2.20;;;;;;;;;;5066415;28;20217;-71
2021/10/01 01:48:30;;;;;;;5.50;1.50;;;;;;;;;;5066548;28;20271;-71
2021/10/01 01:51:00;;;;;;;4.33;1.67;;;;;;;;;;5066521;28;20270;-70
2021/10/01 01:53:27;;;;;;;6.83;2.03;;;;;;;;;;5066116;28;20220;-73
2021/10/01 01:55:55;;;;;;;5.33;2.30;;;;;;;;;;5065973;28;20249;-73
2021/10/01 01:58:22;;;;;;;6.73;1.80;;;;;;;;;;5066152;28;20240;-73
2021/10/01 02:00:49;;;;;;;6.93;1.83;;;;;;;;;;5066300;28;20229;-73
2021/10/01 02:03:17;;;;;;;3.57;1.40;;;;;;;;;;5066495;28;20237;-73
2021/10/01 02:05:45;;;;;;;4.37;1.63;;;;;;;;;;5066053;28;20218;-72
2021/10/01 02:08:15;;;;;;;5.40;1.67;;;;;;;;;;5067675;28;20213;-73
2021/10/01 02:10:43;;;;;;;2.83;1.40;;;;;;;;;;5069633;28;20259;-73
2021/10/01 02:13:11;;;;;;;2.73;1.50;;;;;;;;;;5069848;28;20603;-73
2021/10/01 02:15:40;;;;;;;4.03;1.50;;;;;;;;;;5069579;28;20274;-73
2021/10/01 02:18:09;;;;;;;7.43;1.50;;;;;;;;;;5069717;28;20757;-73
2021/10/01 02:20:36;;;;;;;4.10;1.53;;;;;;;;;;5069643;28;20901;-73
2021/10/01 02:23:04;;;;;;;6.73;1.57;;;;;;;;;;5069326;28;20232;-73
2021/10/01 02:28:24;;;;;;;5.33;1.83;;;;;;;;;;5069056;28;20309;-73
2021/10/01 02:30:53;;;;;;;3.53;1.97;;;;;;;;;;5068334;28;20205;-73
2021/10/01 02:33:27;;;;;;;4.20;1.90;;;;;;;;;;5068186;28;20216;-73
2021/10/01 02:35:54;;;;;;;4.23;1.73;;;;;;;;;;5068454;28;20808;-73
2021/10/01 02:38:20;;;;;;;4.43;1.60;;;;;;;;;;5068462;28;20668;-73
2021/10/01 02:40:48;;;;;;;5.63;1.80;;;;;;;;;;5068158;28;20267;-73
2021/10/01 02:43:15;;;;;;;3.87;1.13;;;;;;;;;;5068402;28;20919;-73
2021/10/01 02:45:41;;;;;;;4.77;1.77;;;;;;;;;;5069176;28;20217;-73
2021/10/01 02:48:07;;;;;;;4.77;1.80;;;;;;;;;;5069300;28;20217;-72
2021/10/01 02:50:34;;;;;;;5.00;1.37;;;;;;;;;;5069051;28;20217;-73
2021/10/01 02:53:07;;;;;;;11.33;2.07;;;;;;;;;;5069346;28;20604;-73
2021/10/01 02:55:39;;;;;;;5.00;1.60;;;;;;;;;;5068553;28;20697;-73
2021/10/01 02:58:13;;;;;;;5.17;1.77;;;;;;;;;;5069233;28;20220;-73
2021/10/01 03:00:40;;;;;;;5.07;2.20;;;;;;;;;;5068649;28;20290;-73
2021/10/01 03:03:10;;;;;;;5.03;1.60;;;;;;;;;;5068791;28;20571;-73
2021/10/01 03:05:41;;;;;;;4.93;2.23;;;;;;;;;;5068620;28;20209;-73
2021/10/01 03:08:08;;;;;;;3.10;2.10;;;;;;;;;;5069076;28;20274;-73
2021/10/01 03:10:37;;;;;;;3.37;1.40;;;;;;;;;;5068517;28;20296;-73
2021/10/01 03:13:03;;;;;;;7.10;2.07;;;;;;;;;;5068618;28;20206;-72
2021/10/01 03:15:32;;;;;;;5.30;1.47;;;;;;;;;;5068415;28;20279;-73
2021/10/01 03:17:59;;;;;;;5.60;1.20;;;;;;;;;;5068827;28;20286;-73
2021/10/01 03:20:26;;;;;;;3.87;1.30;;;;;;;;;;5068217;28;20718;-73
2021/10/01 03:22:53;;;;;;;4.17;1.53;;;;;;;;;;5068003;28;20286;-73
2021/10/01 03:25:21;;;;;;;4.53;1.50;;;;;;;;;;5068427;28;20712;-73
2021/10/01 03:27:48;;;;;;;4.90;1.80;;;;;;;;;;5067563;28;20716;-73
2021/10/01 03:30:14;;;;;;;6.83;2.30;;;;;;;;;;5068416;28;20209;-73
2021/10/01 03:32:42;;;;;;;5.27;1.40;;;;;;;;;;5068060;28;20228;-73
2021/10/01 03:35:11;;;;;;;5.63;1.53;;;;;;;;;;5068057;28;20757;-73
2021/10/01 03:37:38;;;;;;;5.03;2.30;;;;;;;;;;5068356;28;20225;-73
2021/10/01 03:40:08;;;;;;;3.33;1.33;;;;;;;;;;5067596;28;20280;-73
2021/10/01 03:42:35;;;;;;;5.80;1.50;;;;;;;;;;5067720;28;20229;-73
2021/10/01 03:45:02;;;;;;;6.93;1.43;;;;;;;;;;5068143;28;20217;-73
2021/10/01 03:47:29;;;;;;;4.97;1.73;;;;;;;;;;5068064;28;20213;-73
2021/10/01 03:49:56;;;;;;;4.40;1.77;;;;;;;;;;5068379;28;20278;-73
2021/10/01 03:52:23;;;;;;;5.37;1.90;;;;;;;;;;5067686;28;20243;-73
2021/10/01 03:54:51;;;;;;;4.53;1.57;;;;;;;;;;5067595;28;20290;-73
2021/10/01 03:57:18;;;;;;;4.53;1.70;;;;;;;;;;5068008;28;20267;-73
2021/10/01 03:59:44;;;;;;;4.13;1.60;;;;;;;;;;5067933;28;20213;-73
2021/10/01 04:02:11;;;;;;;3.77;1.40;;;;;;;;;;5067644;28;20656;-73
2021/10/01 04:04:37;;;;;;;5.90;1.60;;;;;;;;;;5067700;28;20672;-73
2021/10/01 04:07:06;;;;;;;7.83;1.77;;;;;;;;;;5067228;28;20210;-73
2021/10/01 04:09:32;;;;;;;8.87;1.60;;;;;;;;;;5067598;28;20213;-73
2021/10/01 04:11:58;;;;;;;4.17;1.60;;;;;;;;;;5067724;28;20228;-73
2021/10/01 04:14:25;;;;;;;6.30;1.73;;;;;;;;;;5067266;28;20209;-73
2021/10/01 04:16:52;;;;;;;4.93;1.43;;;;;;;;;;5067384;28;20647;-74
2021/10/01 04:19:19;;;;;;;4.80;1.60;;;;;;;;;;5067571;28;20271;-73
2021/10/01 04:21:46;;;;;;;4.10;1.70;;;;;;;;;;5067545;28;20717;-73
2021/10/01 04:24:13;;;;;;;5.30;1.30;;;;;;;;;;5067401;28;20236;-73
2021/10/01 04:26:40;;;;;;;4.50;1.90;;;;;;;;;;5067256;28;20240;-73
2021/10/01 04:29:06;;;;;;;6.87;2.60;;;;;;;;;;5066486;28;20216;-73
2021/10/01 04:31:33;;;;;;;4.30;1.50;;;;;;;;;;5066440;28;20282;-72
2021/10/01 04:33:59;;;;;;;5.57;1.63;;;;;;;;;;5067153;28;20213;-70
2021/10/01 04:36:27;;;;;;;3.53;1.37;;;;;;;;;;5067178;28;20266;-72
2021/10/01 04:38:53;;;;;;;6.13;1.70;;;;;;;;;;5067278;28;20241;-70
2021/10/01 04:41:22;;;;;;;3.80;1.60;;;;;;;;;;5066506;28;20233;-70
2021/10/01 04:43:48;;;;;;;5.17;1.93;;;;;;;;;;5066648;28;20240;-69
2021/10/01 04:46:15;;;;;;;3.80;1.53;;;;;;;;;;5067168;28;20763;-70
2021/10/01 04:48:41;;;;;;;4.73;1.77;;;;;;;;;;5067003;28;20217;-69
2021/10/01 04:51:08;;;;;;;2.80;1.40;;;;;;;;;;5067177;28;20641;-69
2021/10/01 04:53:34;;;;;;;4.47;1.50;;;;;;;;;;5066993;28;20220;-69
2021/10/01 04:56:01;;;;;;;5.20;1.70;;;;;;;;;;5066691;28;20282;-70
2021/10/01 04:58:28;;;;;;;5.70;1.80;;;;;;;;;;5066523;28;20263;-70
2021/10/01 05:00:55;;;;;;;5.13;1.77;;;;;;;;;;5066868;28;20213;-70
2021/10/01 05:03:21;;;;;;;7.67;1.60;;;;;;;;;;5066700;28;20234;-72
2021/10/01 05:05:47;;;;;;;5.00;1.47;;;;;;;;;;5066775;28;20263;-72
2021/10/01 05:08:14;;;;;;;4.57;1.57;;;;;;;;;;5066660;28;20248;-72
2021/10/01 05:10:40;;;;;;;6.73;1.37;;;;;;;;;;5066527;28;21037;-71
2021/10/01 05:13:07;;;;;;;4.87;2.00;;;;;;;;;;5066376;28;20205;-72
2021/10/01 05:15:35;;;;;;;3.67;1.50;;;;;;;;;;5066230;28;20217;-72
2021/10/01 05:18:01;;;;;;;5.23;2.13;;;;;;;;;;5066124;28;20321;-72
2021/10/01 05:20:28;;;;;;;3.00;1.60;;;;;;;;;;5066550;28;20622;-71
2021/10/01 05:22:54;;;;;;;4.70;1.43;;;;;;;;;;5066031;28;20213;-72
2021/10/01 05:25:20;;;;;;;3.27;1.60;;;;;;;;;;5066690;28;20287;-71
2021/10/01 05:27:47;;;;;;;6.90;1.70;;;;;;;;;;5065525;28;20250;-72
2021/10/01 05:30:13;;;;;;;4.13;1.10;;;;;;;;;;5066446;28;20214;-71
2021/10/01 05:32:41;;;;;;;6.20;1.57;;;;;;;;;;5065467;28;20212;-71
2021/10/01 05:35:07;;;;;;;5.37;1.33;;;;;;;;;;5065541;28;20270;-72
2021/10/01 05:37:34;;;;;;;3.53;1.30;;;;;;;;;;5065250;28;20217;-71
2021/10/01 05:40:00;;;;;;;11.80;1.60;;;;;;;;;;5065137;28;20279;-72
2021/10/01 05:42:27;;;;;;;6.30;1.50;;;;;;;;;;5065724;28;20273;-72
2021/10/01 05:44:53;;;;;;;3.03;1.37;;;;;;;;;;5069078;28;20239;-72
2021/10/01 05:47:20;;;;;;;3.20;1.60;;;;;;;;;;5069979;28;20264;-71
2021/10/01 05:49:48;;;;;;;4.20;1.93;;;;;;;;;;5069536;28;20599;-72
2021/10/01 05:52:23;;;;;;;5.00;1.50;;;;;;;;;;5069307;28;20213;-72
2021/10/01 05:54:51;;;;;;;3.47;1.40;;;;;;;;;;5067919;28;20316;-72
2021/10/01 05:57:18;;;;;;;4.20;1.60;;;;;;;;;;5068756;28;20209;-72
2021/10/01 05:59:45;;;;;;;6.77;1.47;;;;;;;;;;5068826;28;20208;-72
2021/10/01 06:02:13;;;;;;;4.07;2.00;;;;;;;;;;5067686;28;20254;-71
2021/10/01 06:04:39;;;;;;;4.87;1.13;;;;;;;;;;5068613;28;20301;-71
2021/10/01 06:07:07;;;;;;;6.33;1.60;;;;;;;;;;5067750;28;20274;-72
2021/10/01 06:09:34;;;;;;;5.37;1.67;;;;;;;;;;5067332;28;20262;-72
2021/10/01 06:12:00;;;;;;;4.50;1.80;;;;;;;;;;5067147;28;21174;-72
2021/10/01 06:14:27;;;;;;;5.63;1.43;;;;;;;;;;5066927;28;20205;-72
2021/10/01 06:16:54;;;;;;;4.43;1.30;;;;;;;;;;5067098;28;20938;-72
2021/10/01 06:19:22;;;;;;;4.77;2.13;;;;;;;;;;5066415;28;20674;-72
2021/10/01 06:21:51;;;;;;;5.20;1.50;;;;;;;;;;5067600;28;20618;-72
2021/10/01 06:24:19;;;;;;;2.60;1.43;;;;;;;;;;5066626;28;20237;-71
2021/10/01 06:26:47;;;;;;;6.20;2.17;;;;;;;;;;5067523;28;20239;-72
2021/10/01 06:29:15;;;;;;;7.40;2.13;;;;;;;;;;5065790;28;20227;-72
2021/10/01 06:31:41;;;;;;;4.07;1.80;;;;;;;;;;5067486;28;20231;-72
2021/10/01 06:34:08;;;;;;;3.47;1.30;;;;;;;;;;5066843;28;20212;-72
2021/10/01 06:36:34;;;;;;;4.43;1.80;;;;;;;;;;5067357;28;20212;-72
2021/10/01 06:39:01;;;;;;;6.60;2.13;;;;;;;;;;5067202;28;20336;-72
2021/10/01 06:41:29;;;;;;;6.80;1.70;;;;;;;;;;5066794;28;20295;-71
2021/10/01 06:43:59;;;;;;;7.53;1.30;;;;;;;;;;5066626;28;20817;-72
2021/10/01 06:46:32;;;;;;;4.20;1.47;;;;;;;;;;5066421;28;20244;-71
2021/10/01 06:49:10;;;;;;;7.53;1.40;;;;;;;;;;5066207;28;20700;-72
2021/10/01 06:51:48;;;;;;;5.77;1.60;;;;;;;;;;5067063;28;20285;-71
2021/10/01 08:19:22;;;;;;;5.03;1.30;;;;;;;;;;5082027;28;20211;-70
2021/10/01 08:21:50;;;;;;;6.60;1.70;;;;;;;;;;5083313;28;21039;-70
2021/10/01 08:24:18;;;;;;;11.20;2.30;;;;;;;;;;5083779;28;20216;-70
2021/10/01 08:26:48;;;;;;;11.43;1.83;;;;;;;;;;5084550;28;20202;-71
2021/10/01 08:29:15;;;;;;;4.97;1.40;;;;;;;;;;5083431;28;20725;-70
2021/10/01 08:31:43;;;;;;;14.13;1.67;;;;;;;;;;5084351;28;20325;-71
2021/10/01 08:34:10;;;;;;;6.07;1.23;;;;;;;;;;5084265;28;20239;-71
2021/10/01 08:36:38;;;;;;;5.00;1.90;;;;;;;;;;5083882;28;20232;-71
2021/10/01 08:39:07;;;;;;;10.30;2.20;;;;;;;;;;5084102;28;20289;-71
2021/10/01 08:41:36;;;;;;;3.97;1.70;;;;;;;;;;5084174;28;20621;-71
2021/10/01 08:44:06;;;;;;;5.47;1.37;;;;;;;;;;5083897;28;20209;-71
2021/10/01 08:46:34;;;;;;;3.97;1.30;;;;;;;;;;5082947;28;20705;-70
2021/10/01 08:49:06;;;;;;;4.67;1.50;;;;;;;;;;5083186;28;20205;-70
2021/10/01 08:51:34;;;;;;;4.47;1.20;;;;;;;;;;5084841;28;20308;-70
2021/10/01 08:54:02;;;;;;;16.40;1.87;;;;;;;;;;5081881;28;20570;-70
2021/10/01 08:56:29;;;;;;;7.90;1.70;;;;;;;;;;5086107;28;20850;-71
2021/10/01 08:58:56;;;;;;;8.43;1.70;;;;;;;;;;5082962;28;20274;-71
2021/10/01 09:01:26;;;;;;;7.03;1.43;;;;;;;;;;5082716;28;20229;-70
2021/10/01 09:03:52;;;;;;;5.83;1.97;;;;;;;;;;5087866;28;20240;-70
2021/10/01 09:06:20;;;;;;;6.30;1.40;;;;;;;;;;5074957;28;20226;-70
2021/10/01 09:08:52;;;;;;;14.97;1.73;;;;;;;;;;5069689;28;20205;-71
2021/10/01 09:11:19;;;;;;;17.53;2.37;;;;;;;;;;5061316;28;20249;-71
2021/10/01 09:13:45;;;;;;;7.60;1.47;;;;;;;;;;5069654;28;20258;-71
2021/10/01 09:16:14;;;;;;;14.97;1.63;;;;;;;;;;5069679;28;20259;-70
2021/10/01 09:18:42;;;;;;;3.87;1.40;;;;;;;;;;5068923;28;20206;-70
2021/10/01 09:21:11;;;;;;;5.83;1.30;;;;;;;;;;5064326;28;20219;-71
2021/10/01 09:23:43;;;;;;;10.63;1.67;;;;;;;;;;5055007;28;20622;-70
2021/10/01 09:26:12;;;;;;;4.80;1.33;;;;;;;;;;5057709;28;20209;-70
2021/10/01 09:28:47;;;;;;;13.30;1.63;;;;;;;;;;5054082;28;20215;-70
2021/10/01 09:31:48;;;;;;;12.17;1.90;;;;;;;;;;5056144;28;20237;-70
2021/10/01 09:34:30;;;;;;;12.20;2.10;;;;;;;;;;4973623;28;20216;-70
2021/10/01 09:36:59;;;;;;;10.67;1.80;;;;;;;;;;4974087;28;20635;-70
2021/10/01 09:39:27;;;;;;;13.60;1.80;;;;;;;;;;5020264;28;20219;-70
2021/10/01 09:41:53;;;;;;;4.90;1.60;;;;;;;;;;5055229;28;20222;-70
2021/10/01 09:44:21;;;;;;;7.03;1.60;;;;;;;;;;5053292;28;20218;-70
2021/10/01 09:46:50;;;;;;;5.57;1.53;;;;;;;;;;5054162;28;20215;-70
2021/10/01 09:49:20;;;;;;;7.27;1.40;;;;;;;;;;5055784;28;20667;-70
2021/10/01 09:51:51;;;;;;;4.73;1.27;;;;;;;;;;5054657;28;20230;-70
2021/10/01 09:54:21;;;;;;;4.03;1.37;;;;;;;;;;5053797;28;20214;-70
2021/10/01 09:56:48;;;;;;;7.20;1.53;;;;;;;;;;5054180;28;20261;-70
2021/10/01 09:59:16;;;;;;;23.37;3.93;;;;;;;;;;5054967;28;20372;-70
2021/10/01 10:02:03;;;;;;;7.23;1.40;;;;;;;;;;5054075;28;20304;-70
2021/10/01 10:04:33;;;;;;;9.30;1.83;;;;;;;;;;5054484;28;20214;-70
2021/10/01 10:07:09;;;;;;;8.27;1.67;;;;;;;;;;5054462;28;20293;-70
2021/10/01 10:09:37;;;;;;;10.07;1.90;;;;;;;;;;5052094;28;20222;-70
2021/10/01 10:12:04;;;;;;;5.27;1.40;;;;;;;;;;5052702;28;20822;-70
2021/10/01 10:14:33;;;;;;;7.80;2.07;;;;;;;;;;5053784;28;20640;-70
2021/10/01 10:17:00;;;;;;;13.57;2.03;;;;;;;;;;5054254;28;20211;-70
2021/10/01 10:19:30;;;;;;;4.60;1.93;;;;;;;;;;5054912;28;20235;-71
2021/10/01 10:21:59;;;;;;;8.70;1.73;;;;;;;;;;5054736;28;20244;-70
2021/10/01 10:24:25;;;;;;;70.00;6.17;;;;;;;;;;5054496;28;20668;-70
2021/10/01 10:26:52;;;;;;;4.80;1.33;;;;;;;;;;5053195;28;20217;-71
2021/10/01 10:29:19;;;;;;;9.30;1.43;;;;;;;;;;5054736;28;20676;-70
2021/10/01 10:31:48;;;;;;;5.07;2.00;;;;;;;;;;5053260;28;20692;-72
2021/10/01 10:34:21;;;;;;;4.77;1.30;;;;;;;;;;5054522;28;21103;-71
2021/10/01 10:36:48;;;;;;;11.57;1.97;;;;;;;;;;5054541;28;20267;-70
2021/10/01 10:39:43;;;;;;;8.97;2.23;;;;;;;;;;5054205;28;20676;-71
2021/10/01 10:42:12;;;;;;;3.10;1.30;;;;;;;;;;5052006;28;20268;-70
2021/10/01 10:44:46;;;;;;;10.53;1.70;;;;;;;;;;5052732;28;20219;-69
2021/10/01 10:47:33;;;;;;;5.33;1.60;;;;;;;;;;5052523;28;20215;-69
2021/10/01 10:50:27;;;;;;;8.37;1.80;;;;;;;;;;5052294;28;20230;-72
2021/10/01 10:53:11;;;;;;;3.90;1.27;;;;;;;;;;5053645;28;20202;-69
2021/10/01 10:56:09;;;;;;;6.03;1.40;;;;;;;;;;5054805;28;20217;-71
2021/10/01 10:58:49;;;;;;;4.60;1.40;;;;;;;;;;5037354;28;20525;-72
2021/10/01 11:01:34;;;;;;;6.80;1.50;;;;;;;;;;5055617;28;20680;-70
2021/10/01 11:04:39;;;;;;;8.03;1.83;;;;;;;;;;5053278;28;20206;-70
2021/10/01 11:07:08;;;;;;;9.63;1.50;;;;;;;;;;5052506;28;20228;-71
2021/10/01 11:12:26;;;;;;;5.50;2.07;;;;;;;;;;5052426;28;21065;-72
2021/10/01 11:15:16;;;;;;;16.07;3.07;;;;;;;;;;5051963;28;20293;-72
2021/10/01 11:17:43;;;;;;;6.60;1.87;;;;;;;;;;5053065;28;20545;-72
2021/10/01 11:20:36;;;;;;;7.70;2.27;;;;;;;;;;5051764;28;20715;-71
2021/10/01 11:23:14;;;;;;;60.27;9.03;;;;;;;;;;5051200;28;20218;-72
2021/10/01 11:25:42;;;;;;;6.20;2.07;;;;;;;;;;5052201;28;20224;-74
2021/10/01 11:28:12;;;;;;;4.97;1.80;;;;;;;;;;5052510;28;20218;-74
2021/10/01 11:30:39;;;;;;;7.93;3.20;;;;;;;;;;5053230;28;20602;-72
2021/10/01 11:33:10;;;;;;;7.30;2.90;;;;;;;;;;5052199;28;20226;-72
2021/10/01 11:35:50;;;;;;;5.13;2.20;;;;;;;;;;5049905;28;20237;-72
2021/10/01 11:38:28;;;;;;;3.57;2.20;;;;;;;;;;5051400;28;20232;-72
2021/10/01 11:41:07;;;;;;;17.43;3.50;;;;;;;;;;5053003;28;20212;-71
2021/10/01 11:43:49;;;;;;;13.30;3.50;;;;;;;;;;5054026;28;20275;-71
2021/10/01 11:46:29;;;;;;;83.70;9.67;;;;;;;;;;5051759;28;20223;-71
2021/10/01 11:48:56;;;;;;;5.53;2.63;;;;;;;;;;5052218;28;20866;-70
2021/10/01 11:51:22;;;;;;;5.83;2.30;;;;;;;;;;5053287;28;20230;-70
2021/10/01 11:53:48;;;;;;;5.47;2.27;;;;;;;;;;5052656;28;20586;-70
2021/10/01 11:56:15;;;;;;;8.13;2.80;;;;;;;;;;5051807;28;20214;-72
2021/10/01 11:58:41;;;;;;;4.53;2.60;;;;;;;;;;5051976;28;20697;-72
2021/10/01 12:01:14;;;;;;;5.50;2.83;;;;;;;;;;5054577;28;20214;-74
2021/10/01 12:03:51;;;;;;;8.00;2.80;;;;;;;;;;5051231;28;20229;-73
2021/10/01 12:06:21;;;;;;;4.73;2.80;;;;;;;;;;5053060;28;20280;-71
2021/10/01 12:08:55;;;;;;;6.37;3.80;;;;;;;;;;5053148;28;20296;-73
2021/10/01 12:11:27;;;;;;;6.63;2.67;;;;;;;;;;5051918;28;20248;-71
2021/10/01 12:13:53;;;;;;;9.60;3.30;;;;;;;;;;5052852;28;20221;-73
2021/10/01 12:16:22;;;;;;;6.90;3.43;;;;;;;;;;5053961;28;20276;-73
2021/10/01 12:18:54;;;;;;;6.30;3.30;;;;;;;;;;5052510;28;20207;-72
2021/10/01 12:21:23;;;;;;;7.63;4.13;;;;;;;;;;5052094;28;20210;-72
2021/10/01 12:23:55;;;;;;;5.73;3.57;;;;;;;;;;5053044;28;20212;-73
2021/10/01 12:26:27;;;;;;;6.93;3.57;;;;;;;;;;5052121;28;20725;-71
2021/10/01 12:28:59;;;;;;;8.20;3.60;;;;;;;;;;5051352;28;20221;-73
2021/10/01 12:31:29;;;;;;;7.27;3.23;;;;;;;;;;5051635;28;20284;-70
2021/10/01 12:33:57;;;;;;;5.23;3.00;;;;;;;;;;5053398;28;20220;-72
2021/10/01 12:36:24;;;;;;;10.43;3.30;;;;;;;;;;5053009;28;20222;-73
2021/10/01 12:38:54;;;;;;;9.07;3.13;;;;;;;;;;5053181;28;20210;-72
2021/10/01 12:41:21;;;;;;;5.33;3.00;;;;;;;;;;5051915;28;20557;-71
2021/10/01 12:43:48;;;;;;;3.73;2.57;;;;;;;;;;5051211;28;20649;-71
2021/10/01 12:46:38;;;;;;;9.00;2.97;;;;;;;;;;5051668;28;20221;-71
2021/10/01 12:49:17;;;;;;;7.10;2.83;;;;;;;;;;5051413;28;20252;-73
2021/10/01 12:51:44;;;;;;;6.07;2.67;;;;;;;;;;5052931;28;20279;-74
2021/10/01 12:54:25;;;;;;;7.90;3.27;;;;;;;;;;5051906;28;20214;-73
2021/10/01 12:57:12;;;;;;;7.20;2.87;;;;;;;;;;5052800;28;20271;-73
2021/10/01 12:59:40;;;;;;;5.70;3.03;;;;;;;;;;5056467;28;20344;-73
2021/10/01 13:02:11;;;;;;;7.13;3.60;;;;;;;;;;5054718;28;20838;-71
2021/10/01 13:04:55;;;;;;;6.30;3.03;;;;;;;;;;5053765;28;20820;-71
2021/10/01 13:07:29;;;;;;;7.30;3.37;;;;;;;;;;5056424;28;20213;-71
2021/10/01 13:09:58;;;;;;;6.50;3.00;;;;;;;;;;5054091;28;20256;-71
2021/10/01 13:12:33;;;;;;;4.57;2.77;;;;;;;;;;5054380;28;20296;-70
2021/10/01 13:15:16;;;;;;;3.10;1.83;;;;;;;;;;5056807;28;20216;-70
2021/10/01 13:17:59;;;;;;;7.63;2.43;;;;;;;;;;5053862;28;20633;-70
2021/10/01 13:20:27;;;;;;;5.50;2.23;;;;;;;;;;5053920;28;20294;-70
2021/10/01 13:22:57;;;;;;;5.40;2.97;;;;;;;;;;5055316;28;20218;-69
2021/10/01 13:25:24;;;;;;;8.27;2.80;;;;;;;;;;5055722;28;20224;-70
2021/10/01 13:27:52;;;;;;;5.17;2.20;;;;;;;;;;5053720;28;20609;-69
2021/10/01 13:30:18;;;;;;;6.97;1.77;;;;;;;;;;5053684;28;20210;-69
2021/10/01 13:32:46;;;;;;;5.20;2.17;;;;;;;;;;5054997;28;20233;-69
2021/10/01 13:35:15;;;;;;;4.63;2.20;;;;;;;;;;5054520;28;20368;-70
2021/10/01 13:37:42;;;;;;;5.33;1.90;;;;;;;;;;5054807;28;20242;-69
2021/10/01 13:40:09;;;;;;;6.00;2.17;;;;;;;;;;5053564;28;20240;-69
2021/10/01 13:42:35;;;;;;;4.67;1.87;;;;;;;;;;5055211;28;20214;-70
2021/10/01 13:45:01;;;;;;;4.60;1.87;;;;;;;;;;5054943;28;20214;-70
2021/10/01 13:47:31;;;;;;;5.97;1.70;;;;;;;;;;5053883;28;20244;-70
2021/10/01 13:49:59;;;;;;;7.30;1.70;;;;;;;;;;5052527;28;20287;-70
2021/10/01 13:52:26;;;;;;;4.30;1.63;;;;;;;;;;5053314;28;20296;-69
2021/10/01 13:54:53;;;;;;;5.40;1.73;;;;;;;;;;5054662;28;20214;-69
2021/10/01 13:57:19;;;;;;;4.30;1.60;;;;;;;;;;5054062;28;20264;-69
2021/10/01 13:59:46;;;;;;;7.63;2.50;;;;;;;;;;5052962;28;20219;-70
2021/10/01 14:02:12;;;;;;;3.60;1.67;;;;;;;;;;5053241;28;20209;-70
2021/10/01 14:04:39;;;;;;;3.20;1.77;;;;;;;;;;5053416;28;20234;-70
2021/10/01 14:07:07;;;;;;;5.80;2.30;;;;;;;;;;5055653;28;20207;-70
2021/10/01 14:09:33;;;;;;;4.37;1.77;;;;;;;;;;5052670;28;20222;-69
2021/10/01 14:12:00;;;;;;;4.13;1.43;;;;;;;;;;5053627;28;20367;-69
2021/10/01 14:14:26;;;;;;;4.47;1.80;;;;;;;;;;5056160;28;21147;-70
2021/10/01 14:16:52;;;;;;;3.77;1.30;;;;;;;;;;5054975;28;20222;-70
2021/10/01 14:19:19;;;;;;;4.43;1.77;;;;;;;;;;5054640;28;20210;-70
2021/10/01 14:21:45;;;;;;;3.40;1.30;;;;;;;;;;5053927;28;20231;-69
2021/10/01 14:24:14;;;;;;;4.83;1.73;;;;;;;;;;5053122;28;20671;-69
2021/10/01 14:26:40;;;;;;;2.67;1.33;;;;;;;;;;5054162;28;20226;-69
2021/10/01 14:29:07;;;;;;;6.73;2.27;;;;;;;;;;5054470;28;20222;-69
2021/10/01 14:31:33;;;;;;;6.67;1.60;;;;;;;;;;5054144;28;20226;-69
2021/10/01 14:34:00;;;;;;;4.17;1.90;;;;;;;;;;5055358;28;20296;-69
2021/10/01 14:36:27;;;;;;;6.90;1.70;;;;;;;;;;5053840;28;20234;-69
2021/10/01 14:38:53;;;;;;;4.73;2.00;;;;;;;;;;5054460;28;20256;-69
2021/10/01 14:41:21;;;;;;;3.63;1.90;;;;;;;;;;5056855;28;20221;-69
2021/10/01 14:43:48;;;;;;;5.10;1.67;;;;;;;;;;5051925;28;20669;-70
2021/10/01 14:46:14;;;;;;;5.00;2.07;;;;;;;;;;5052882;28;20264;-69
2021/10/01 14:48:41;;;;;;;8.77;2.20;;;;;;;;;;5052533;28;20279;-69
2021/10/01 14:51:07;;;;;;;3.40;1.90;;;;;;;;;;5053459;28;20683;-70
2021/10/01 14:53:35;;;;;;;5.00;2.03;;;;;;;;;;5052678;28;20214;-69
2021/10/01 14:56:01;;;;;;;3.60;1.90;;;;;;;;;;5052724;28;20211;-69
2021/10/01 14:58:29;;;;;;;5.80;1.67;;;;;;;;;;5053420;28;20217;-69
2021/10/01 15:00:55;;;;;;;4.57;1.70;;;;;;;;;;5051464;28;20623;-72
2021/10/01 15:03:22;;;;;;;5.17;1.77;;;;;;;;;;5054072;28;20255;-69
2021/10/01 15:05:49;;;;;;;4.63;1.50;;;;;;;;;;5053486;28;20664;-70
2021/10/01 15:08:15;;;;;;;4.23;2.30;;;;;;;;;;5052734;28;20630;-72
2021/10/01 15:10:41;;;;;;;6.43;1.87;;;;;;;;;;5052057;28;20249;-72
2021/10/01 15:13:08;;;;;;;3.77;1.40;;;;;;;;;;5054829;28;20279;-72
2021/10/01 15:15:36;;;;;;;8.10;1.93;;;;;;;;;;5053667;28;20213;-69
2021/10/01 15:18:02;;;;;;;3.23;1.30;;;;;;;;;;5053068;28;20269;-70
2021/10/01 15:20:29;;;;;;;5.07;1.70;;;;;;;;;;5053453;28;20234;-70
2021/10/01 15:22:55;;;;;;;4.43;1.47;;;;;;;;;;5052553;28;20606;-71
2021/10/01 15:25:22;;;;;;;5.00;1.83;;;;;;;;;;5054048;28;20284;-69
2021/10/01 15:27:48;;;;;;;7.57;1.97;;;;;;;;;;5050252;28;20218;-70
2021/10/01 15:30:16;;;;;;;5.37;1.63;;;;;;;;;;5053306;28;20693;-69
2021/10/01 15:32:45;;;;;;;7.10;2.10;;;;;;;;;;5051938;28;20238;-71
2021/10/01 15:35:16;;;;;;;4.53;1.93;;;;;;;;;;5053089;28;20241;-70
2021/10/01 15:37:44;;;;;;;3.90;1.93;;;;;;;;;;5053177;28;20754;-71
2021/10/01 15:40:11;;;;;;;10.27;2.23;;;;;;;;;;5054155;28;20313;-70
2021/10/01 15:42:38;;;;;;;4.47;2.00;;;;;;;;;;5051666;28;20268;-71
2021/10/01 15:45:06;;;;;;;3.87;1.50;;;;;;;;;;5054299;28;20272;-71
2021/10/01 15:47:32;;;;;;;6.83;2.00;;;;;;;;;;5052879;28;20214;-72
2021/10/01 15:50:00;;;;;;;4.30;1.67;;;;;;;;;;5053049;28;20276;-73
2021/10/01 15:52:27;;;;;;;5.03;2.07;;;;;;;;;;5052795;28;20682;-73
2021/10/01 15:54:53;;;;;;;5.37;2.40;;;;;;;;;;5052776;28;20264;-72
2021/10/01 15:57:19;;;;;;;6.87;1.90;;;;;;;;;;5054118;28;20307;-72
2021/10/01 15:59:46;;;;;;;6.20;2.10;;;;;;;;;;5052801;28;20622;-73
2021/10/01 16:02:12;;;;;;;7.33;1.70;;;;;;;;;;5052645;28;20278;-73
2021/10/01 16:04:38;;;;;;;7.63;2.30;;;;;;;;;;5050815;28;20234;-74
2021/10/01 16:07:06;;;;;;;6.90;1.97;;;;;;;;;;5053105;28;20210;-75
2021/10/01 16:09:33;;;;;;;6.47;2.50;;;;;;;;;;5051138;28;20582;-75
2021/10/01 16:12:02;;;;;;;7.33;3.10;;;;;;;;;;5051247;28;20265;-75
2021/10/01 16:14:28;;;;;;;12.63;2.80;;;;;;;;;;5052829;28;20221;-75
2021/10/01 16:16:54;;;;;;;8.03;2.70;;;;;;;;;;5051608;28;20218;-74
2021/10/01 16:19:22;;;;;;;10.57;3.10;;;;;;;;;;5052619;28;20237;-74
2021/10/01 16:21:48;;;;;;;9.33;3.30;;;;;;;;;;5052718;28;20987;-74
2021/10/01 16:24:16;;;;;;;8.10;3.03;;;;;;;;;;5054174;28;20296;-74